Marianne Danica — OWWO2 — position and weather

sailwx.info

Track history (hours):
 
Tides and Currents Weather Stations Pressure Air Temp Water Temp Dewpoint Dewpoint Depression Visibility Wind Speed Wind Dir Waves Ship Positions

Marianne Danica

Last reported at 2018-Mar-31 00:13 UTC. Time now 2018-Apr-26 15:38 UTC.
Position N 36°27' E 015°16'.
Warning: this ship's position is 26 days out of date.

Length 72 m; draft 4.1 m.

Type: Ship (hazmat cat A). MMSI: 219544000.

Date/timePositionNaut miles runAvg speedWind from/ knotsBaromVisibWave heightAir tempDewpointWater temp
2018-Mar-31 00:13N 36°27' E 015°16'210.3
2018-Mar-30 23:59N 36°27' E 015°13'510.7
2018-Mar-30 23:29N 36°29' E 015°07'613.2
2018-Mar-30 23:00N 36°31' E 014°59'510.9
2018-Mar-30 22:30N 36°33' E 014°53'5 9.6
2018-Mar-30 21:56N 36°34' E 014°46'511.3
2018-Mar-30 21:28N 36°36' E 014°40'613.1
2018-Mar-30 20:59N 36°37' E 014°32'611.9
2018-Mar-30 20:30N 36°39' E 014°25'4 8.2
2018-Mar-30 19:59N 36°39' E 014°20'611.2
2018-Mar-30 19:29N 36°40' E 014°13'5 9.8
2018-Mar-30 18:59N 36°41' E 014°07'510.1
2018-Mar-30 18:30N 36°43' E 014°01'1310.8
2018-Mar-30 17:19N 36°46' E 013°46'511.4
2018-Mar-30 16:52N 36°47' E 013°40'410.3
2018-Mar-30 16:25N 36°48' E 013°34'4 9.8
2018-Mar-30 15:58N 36°48' E 013°29'510.1
2018-Mar-30 15:29N 36°49' E 013°23'510.0
2018-Mar-30 15:00N 36°50' E 013°17'510.3
2018-Mar-30 14:29N 36°51' E 013°10'510.2
2018-Mar-30 13:57N 36°53' E 013°04'510.7
2018-Mar-30 13:29N 36°54' E 012°58'5 9.4
2018-Mar-30 13:00N 36°55' E 012°52'5 9.4
2018-Mar-30 12:30N 36°56' E 012°46'710.6
2018-Mar-30 11:53N 36°57' E 012°38'16810.5
2018-Mar-29 19:54N 38°33' E 009°45'410.2
2018-Mar-29 19:30N 38°36' E 009°41'510.4
2018-Mar-29 19:00N 38°40' E 009°37'510.3
2018-Mar-29 18:30N 38°44' E 009°32'510.5
2018-Mar-29 17:59N 38°48' E 009°28'510.4
2018-Mar-29 17:29N 38°52' E 009°23'510.2
2018-Mar-29 17:00N 38°55' E 009°19'610.2
2018-Mar-29 16:24N 39°00' E 009°14'4 9.6
2018-Mar-29 15:59N 39°03' E 009°11'5 9.4
2018-Mar-29 15:30N 39°07' E 009°07'5 9.3
2018-Mar-29 14:59N 39°11' E 009°06'2 3.4
2018-Mar-29 14:30N 39°13' E 009°05'0 0.0
2018-Mar-29 14:00N 39°13' E 009°05'0 0.0
2018-Mar-29 13:30N 39°13' E 009°05'0 0.0
2018-Mar-29 13:00N 39°13' E 009°05'0 0.0
2018-Mar-29 12:30N 39°13' E 009°05'0 0.0
2018-Mar-29 12:00N 39°13' E 009°05'0 0.0
2018-Mar-29 11:30N 39°13' E 009°05'0 0.0
2018-Mar-29 11:00N 39°13' E 009°05'0 0.0
2018-Mar-29 10:30N 39°13' E 009°05'0 0.0
2018-Mar-29 10:00N 39°13' E 009°05'0 0.0
2018-Mar-29 09:30N 39°13' E 009°05'0 0.0
2018-Mar-29 09:00N 39°13' E 009°05'0 0.0
2018-Mar-29 08:30N 39°13' E 009°05'0 0.0
2018-Mar-29 08:00N 39°13' E 009°05'0 0.0
2018-Mar-29 07:30N 39°13' E 009°05'0 0.0
2018-Mar-29 07:00N 39°13' E 009°05'0 0.0
2018-Mar-29 06:30N 39°13' E 009°05'2 4.2
2018-Mar-29 05:59N 39°11' E 009°06'0 0.7
2018-Mar-29 05:30N 39°10' E 009°06'0 0.4
2018-Mar-29 05:00N 39°10' E 009°06'0 0.3
2018-Mar-29 04:30N 39°10' E 009°06'0 0.0
2018-Mar-29 04:00N 39°10' E 009°06'0 0.0
2018-Mar-29 03:30N 39°10' E 009°06'0 0.0
2018-Mar-29 03:00N 39°10' E 009°06'0 0.0
2018-Mar-29 02:30N 39°10' E 009°06'0 0.0
2018-Mar-29 02:00N 39°10' E 009°06'0 0.0
2018-Mar-29 01:30N 39°10' E 009°06'0 0.0
2018-Mar-29 01:00N 39°10' E 009°06'0 0.0
2018-Mar-29 00:30N 39°10' E 009°06'0 0.0
2018-Mar-29 00:00N 39°10' E 009°06'0 0.0
2018-Mar-28 23:30N 39°10' E 009°06'0 0.0
2018-Mar-28 23:00N 39°10' E 009°06'0 0.0
2018-Mar-28 22:30N 39°10' E 009°06'0 0.0
2018-Mar-28 22:00N 39°10' E 009°06'0 0.0
2018-Mar-28 21:27N 39°10' E 009°06'0 0.0
2018-Mar-28 21:00N 39°10' E 009°06'0 0.1
2018-Mar-28 20:30N 39°10' E 009°06'0 0.0
2018-Mar-28 20:00N 39°10' E 009°06'0 0.0
2018-Mar-28 19:30N 39°10' E 009°06'0 0.1
2018-Mar-28 19:00N 39°10' E 009°06'2 3.8
2018-Mar-28 18:30N 39°08' E 009°06'5 9.5
2018-Mar-28 18:00N 39°04' E 009°08'5 9.8
2018-Mar-28 17:29N 38°59' E 009°10'16 9.5
2018-Mar-28 15:49N 38°47' E 008°56'410.5
2018-Mar-28 15:28N 38°46' E 008°51'  
2018-Mar-23 18:20N 35°59' W 005°15'413.5
2018-Mar-23 18:00N 35°59' W 005°21'713.1
2018-Mar-23 17:30N 35°57' W 005°29'286 8.6
2018-Mar-22 08:04N 38°59' W 010°06'110.2
2018-Mar-22 07:59N 39°00' W 010°06'910.1
2018-Mar-22 07:04N 39°10' W 010°07'  
Track history (hours):
 
Tides and Currents Weather Stations Pressure Air Temp Water Temp Dewpoint Dewpoint Depression Visibility Wind Speed Wind Dir Waves Ship Positions

Marianne Danica

Last reported at 2018-Mar-31 00:13 UTC. Time now 2018-Apr-26 15:38 UTC.
Position N 36°27' E 015°16'.
Warning: this ship's position is 26 days out of date.

Length 72 m; draft 4.1 m.

Type: Ship (hazmat cat A). MMSI: 219544000.

Date/timePositionNaut miles runAvg speedWind from/ knotsBaromVisibWave heightAir tempDewpointWater temp
2018-Mar-31 00:13N 36°27' E 015°16'210.3
2018-Mar-30 23:59N 36°27' E 015°13'510.7
2018-Mar-30 23:29N 36°29' E 015°07'613.2
2018-Mar-30 23:00N 36°31' E 014°59'510.9
2018-Mar-30 22:30N 36°33' E 014°53'5 9.6
2018-Mar-30 21:56N 36°34' E 014°46'511.3
2018-Mar-30 21:28N 36°36' E 014°40'613.1
2018-Mar-30 20:59N 36°37' E 014°32'611.9
2018-Mar-30 20:30N 36°39' E 014°25'4 8.2
2018-Mar-30 19:59N 36°39' E 014°20'611.2
2018-Mar-30 19:29N 36°40' E 014°13'5 9.8
2018-Mar-30 18:59N 36°41' E 014°07'510.1
2018-Mar-30 18:30N 36°43' E 014°01'1310.8
2018-Mar-30 17:19N 36°46' E 013°46'511.4
2018-Mar-30 16:52N 36°47' E 013°40'410.3
2018-Mar-30 16:25N 36°48' E 013°34'4 9.8
2018-Mar-30 15:58N 36°48' E 013°29'510.1
2018-Mar-30 15:29N 36°49' E 013°23'510.0
2018-Mar-30 15:00N 36°50' E 013°17'510.3
2018-Mar-30 14:29N 36°51' E 013°10'510.2
2018-Mar-30 13:57N 36°53' E 013°04'510.7
2018-Mar-30 13:29N 36°54' E 012°58'5 9.4
2018-Mar-30 13:00N 36°55' E 012°52'5 9.4
2018-Mar-30 12:30N 36°56' E 012°46'710.6
2018-Mar-30 11:53N 36°57' E 012°38'16810.5
2018-Mar-29 19:54N 38°33' E 009°45'410.2
2018-Mar-29 19:30N 38°36' E 009°41'510.4
2018-Mar-29 19:00N 38°40' E 009°37'510.3
2018-Mar-29 18:30N 38°44' E 009°32'510.5
2018-Mar-29 17:59N 38°48' E 009°28'510.4
2018-Mar-29 17:29N 38°52' E 009°23'510.2
2018-Mar-29 17:00N 38°55' E 009°19'610.2
2018-Mar-29 16:24N 39°00' E 009°14'4 9.6
2018-Mar-29 15:59N 39°03' E 009°11'5 9.4
2018-Mar-29 15:30N 39°07' E 009°07'5 9.3
2018-Mar-29 14:59N 39°11' E 009°06'2 3.4
2018-Mar-29 14:30N 39°13' E 009°05'0 0.0
2018-Mar-29 14:00N 39°13' E 009°05'0 0.0
2018-Mar-29 13:30N 39°13' E 009°05'0 0.0
2018-Mar-29 13:00N 39°13' E 009°05'0 0.0
2018-Mar-29 12:30N 39°13' E 009°05'0 0.0
2018-Mar-29 12:00N 39°13' E 009°05'0 0.0
2018-Mar-29 11:30N 39°13' E 009°05'0 0.0
2018-Mar-29 11:00N 39°13' E 009°05'0 0.0
2018-Mar-29 10:30N 39°13' E 009°05'0 0.0
2018-Mar-29 10:00N 39°13' E 009°05'0 0.0
2018-Mar-29 09:30N 39°13' E 009°05'0 0.0
2018-Mar-29 09:00N 39°13' E 009°05'0 0.0
2018-Mar-29 08:30N 39°13' E 009°05'0 0.0
2018-Mar-29 08:00N 39°13' E 009°05'0 0.0
2018-Mar-29 07:30N 39°13' E 009°05'0 0.0
2018-Mar-29 07:00N 39°13' E 009°05'0 0.0
2018-Mar-29 06:30N 39°13' E 009°05'2 4.2
2018-Mar-29 05:59N 39°11' E 009°06'0 0.7
2018-Mar-29 05:30N 39°10' E 009°06'0 0.4
2018-Mar-29 05:00N 39°10' E 009°06'0 0.3
2018-Mar-29 04:30N 39°10' E 009°06'0 0.0
2018-Mar-29 04:00N 39°10' E 009°06'0 0.0
2018-Mar-29 03:30N 39°10' E 009°06'0 0.0
2018-Mar-29 03:00N 39°10' E 009°06'0 0.0
2018-Mar-29 02:30N 39°10' E 009°06'0 0.0
2018-Mar-29 02:00N 39°10' E 009°06'0 0.0
2018-Mar-29 01:30N 39°10' E 009°06'0 0.0
2018-Mar-29 01:00N 39°10' E 009°06'0 0.0
2018-Mar-29 00:30N 39°10' E 009°06'0 0.0
2018-Mar-29 00:00N 39°10' E 009°06'0 0.0
2018-Mar-28 23:30N 39°10' E 009°06'0 0.0
2018-Mar-28 23:00N 39°10' E 009°06'0 0.0
2018-Mar-28 22:30N 39°10' E 009°06'0 0.0
2018-Mar-28 22:00N 39°10' E 009°06'0 0.0
2018-Mar-28 21:27N 39°10' E 009°06'0 0.0
2018-Mar-28 21:00N 39°10' E 009°06'0 0.1
2018-Mar-28 20:30N 39°10' E 009°06'0 0.0
2018-Mar-28 20:00N 39°10' E 009°06'0 0.0
2018-Mar-28 19:30N 39°10' E 009°06'0 0.1
2018-Mar-28 19:00N 39°10' E 009°06'2 3.8
2018-Mar-28 18:30N 39°08' E 009°06'5 9.5
2018-Mar-28 18:00N 39°04' E 009°08'5 9.8
2018-Mar-28 17:29N 38°59' E 009°10'16 9.5
2018-Mar-28 15:49N 38°47' E 008°56'410.5
2018-Mar-28 15:28N 38°46' E 008°51'  
2018-Mar-23 18:20N 35°59' W 005°15'413.5
2018-Mar-23 18:00N 35°59' W 005°21'713.1
2018-Mar-23 17:30N 35°57' W 005°29'286 8.6
2018-Mar-22 08:04N 38°59' W 010°06'110.2
2018-Mar-22 07:59N 39°00' W 010°06'910.1
2018-Mar-22 07:04N 39°10' W 010°07'  

Dump ship's entire track history